createdAt,value
2023-03-11T00:03:25.243Z,21.73
2023-03-11T00:07:25.264Z,21.72
2023-03-11T00:11:25.383Z,21.71
2023-03-11T00:15:25.354Z,21.71
2023-03-11T00:19:25.338Z,21.71
2023-03-11T00:23:25.297Z,21.71
2023-03-11T00:27:25.241Z,21.68
2023-03-11T00:31:25.205Z,21.68
2023-03-11T00:35:25.176Z,21.68
2023-03-11T00:39:25.148Z,21.68
2023-03-11T00:43:25.109Z,21.63
2023-03-11T00:47:25.065Z,21.62
2023-03-11T00:51:25.033Z,21.60
2023-03-11T00:55:24.990Z,21.59
2023-03-11T00:59:24.948Z,21.54
2023-03-11T01:03:24.920Z,21.52
2023-03-11T01:07:24.890Z,21.49
2023-03-11T01:11:24.937Z,21.48
2023-03-11T01:15:25.040Z,21.42
2023-03-11T01:19:25.153Z,21.41
2023-03-11T01:23:25.117Z,21.37
2023-03-11T01:27:25.089Z,21.35
2023-03-11T01:31:25.120Z,21.31
2023-03-11T01:35:25.016Z,21.27
2023-03-11T01:39:24.972Z,21.24
2023-03-11T01:43:24.956Z,21.22
2023-03-11T01:47:24.896Z,21.17
2023-03-11T01:51:24.875Z,21.13
2023-03-11T01:55:24.829Z,21.11
2023-03-11T01:59:24.820Z,21.08
2023-03-11T02:03:24.835Z,21.03
2023-03-11T02:07:24.788Z,21.00
2023-03-11T02:11:24.699Z,20.98
2023-03-11T02:15:24.660Z,20.95
2023-03-11T02:19:24.614Z,20.93
2023-03-11T02:23:25.216Z,20.87
2023-03-11T02:27:24.947Z,20.85
2023-03-11T02:31:24.997Z,20.83
2023-03-11T02:35:25.123Z,20.77
2023-03-11T02:39:25.319Z,20.77
2023-03-11T02:43:25.511Z,20.72
2023-03-11T02:47:25.468Z,20.70
2023-03-11T02:51:25.432Z,20.66
2023-03-11T02:55:25.387Z,20.60
2023-03-11T02:59:25.361Z,20.61
2023-03-11T03:03:25.310Z,20.57
2023-03-11T03:07:25.286Z,20.53
2023-03-11T03:11:25.251Z,20.50
2023-03-11T03:15:25.226Z,20.47
2023-03-11T03:19:25.202Z,20.44
2023-03-11T03:23:25.168Z,20.39
2023-03-11T03:27:25.093Z,20.40
2023-03-11T03:31:25.171Z,20.38
2023-03-11T03:35:25.035Z,20.35
2023-03-11T03:39:25.219Z,20.33
2023-03-11T03:43:25.195Z,20.31
2023-03-11T03:47:25.163Z,20.28
2023-03-11T03:51:25.127Z,20.25
2023-03-11T03:55:25.101Z,20.20
2023-03-11T03:59:25.039Z,20.19
2023-03-11T04:03:25.053Z,20.15
2023-03-11T04:07:25.022Z,20.14
2023-03-11T04:11:25.266Z,20.10
2023-03-11T04:15:24.978Z,20.08
2023-03-11T04:19:24.920Z,20.05
2023-03-11T04:23:24.851Z,20.02
2023-03-11T04:27:24.830Z,19.98
2023-03-11T04:31:25.277Z,19.94
2023-03-11T04:35:24.805Z,19.90
2023-03-11T04:39:24.804Z,19.90
2023-03-11T04:43:24.844Z,19.86
2023-03-11T04:47:24.757Z,19.83
2023-03-11T04:51:24.947Z,19.84
2023-03-11T04:55:24.993Z,19.82
2023-03-11T04:59:25.103Z,19.81
2023-03-11T05:03:25.213Z,19.82
2023-03-11T05:07:25.271Z,19.79
2023-03-11T05:11:25.403Z,19.79
2023-03-11T05:15:25.380Z,19.78
2023-03-11T05:19:25.328Z,19.77
2023-03-11T05:23:25.319Z,19.76
2023-03-11T05:27:25.256Z,19.74
2023-03-11T05:31:25.256Z,19.74
2023-03-11T05:35:25.300Z,19.71
2023-03-11T05:39:25.162Z,19.71
2023-03-11T05:43:25.134Z,19.72
2023-03-11T05:47:25.099Z,19.70
2023-03-11T05:51:25.056Z,19.69
2023-03-11T05:55:25.029Z,19.66
2023-03-11T05:59:25.291Z,19.65
2023-03-11T06:03:24.973Z,19.64
2023-03-11T06:07:25.039Z,19.61
2023-03-11T06:11:25.018Z,19.59
2023-03-11T06:15:25.150Z,19.58
2023-03-11T06:19:25.264Z,19.57
2023-03-11T06:23:25.298Z,19.54
2023-03-11T06:27:25.389Z,19.52
2023-03-11T06:31:25.492Z,19.51
2023-03-11T06:35:25.695Z,19.47
2023-03-11T06:39:25.790Z,19.46
2023-03-11T06:43:25.813Z,19.43
2023-03-11T06:47:25.795Z,19.42
2023-03-11T06:51:25.651Z,19.38
2023-03-11T06:55:25.600Z,19.37
2023-03-11T06:59:25.576Z,19.37
2023-03-11T07:03:25.548Z,19.33
2023-03-11T07:07:25.590Z,19.26
2023-03-11T07:11:25.523Z,19.21
2023-03-11T07:15:25.453Z,19.21
2023-03-11T07:19:25.426Z,19.16
2023-03-11T07:23:25.560Z,19.15
2023-03-11T07:27:25.564Z,19.15
2023-03-11T07:31:25.576Z,19.13
2023-03-11T07:35:25.630Z,19.12
2023-03-11T07:39:25.653Z,19.11
2023-03-11T07:43:25.722Z,19.08
2023-03-11T07:47:25.731Z,19.04
2023-03-11T07:51:25.731Z,19.04
2023-03-11T07:55:25.833Z,19.03
2023-03-11T07:59:25.886Z,18.95
2023-03-11T08:03:25.997Z,18.87
2023-03-11T08:07:26.060Z,18.84
2023-03-11T08:11:26.166Z,18.84
2023-03-11T08:15:26.399Z,18.85
2023-03-11T08:19:26.366Z,18.84
2023-03-11T08:23:26.500Z,18.85
2023-03-11T08:27:26.568Z,18.84
2023-03-11T08:31:26.748Z,18.82
2023-03-11T08:35:26.825Z,18.77
2023-03-11T08:39:26.906Z,18.74
2023-03-11T08:43:27.038Z,18.66
2023-03-11T08:47:27.140Z,18.54
2023-03-11T08:51:27.131Z,18.51
2023-03-11T08:55:27.109Z,18.52
2023-03-11T08:59:27.024Z,18.53
2023-03-11T09:03:27.034Z,18.52
2023-03-11T09:07:26.974Z,18.49
2023-03-11T09:11:26.944Z,18.51
2023-03-11T09:15:26.911Z,18.49
2023-03-11T09:19:26.860Z,18.44
2023-03-11T09:23:26.837Z,18.40
2023-03-11T09:27:26.782Z,18.37
2023-03-11T09:31:26.833Z,18.34
2023-03-11T09:35:26.760Z,18.32
2023-03-11T09:39:26.716Z,18.32
2023-03-11T09:43:26.635Z,18.31
2023-03-11T09:47:26.610Z,18.29
2023-03-11T09:51:26.668Z,18.28
2023-03-11T09:55:26.839Z,18.18
2023-03-11T09:59:26.923Z,18.08
2023-03-11T10:03:26.896Z,18.05
2023-03-11T10:07:26.880Z,18.02
2023-03-11T10:11:26.833Z,17.90
2023-03-11T10:15:26.778Z,17.80
2023-03-11T10:19:26.753Z,17.76
2023-03-11T10:23:26.722Z,17.62
2023-03-11T10:27:26.712Z,17.62
2023-03-11T10:31:26.682Z,17.61
2023-03-11T10:35:26.630Z,17.62
2023-03-11T10:39:26.571Z,17.60
2023-03-11T10:43:26.536Z,17.42
2023-03-11T10:47:26.486Z,17.38
2023-03-11T10:51:26.461Z,17.48
2023-03-11T10:55:26.438Z,17.53
2023-03-11T10:59:26.451Z,17.59
2023-03-11T11:03:26.628Z,17.64
2023-03-11T11:07:26.831Z,17.65
2023-03-11T11:11:26.985Z,17.39
2023-03-11T11:15:27.156Z,17.27
2023-03-11T11:19:27.323Z,17.40
2023-03-11T11:23:27.434Z,17.29
2023-03-11T11:27:27.500Z,17.34
2023-03-11T11:31:27.629Z,17.35
2023-03-11T11:35:27.662Z,17.33
2023-03-11T11:39:27.662Z,17.29
2023-03-11T11:43:27.777Z,17.44
2023-03-11T11:47:27.878Z,17.48
2023-03-11T11:51:27.853Z,17.47
2023-03-11T11:55:27.985Z,17.41
2023-03-11T11:59:28.199Z,17.34
2023-03-11T12:03:28.233Z,17.27
2023-03-11T12:07:28.122Z,17.21
2023-03-11T12:11:28.079Z,17.16
2023-03-11T12:15:28.065Z,17.15
2023-03-11T12:19:28.014Z,17.12
2023-03-11T12:23:27.993Z,17.13
2023-03-11T12:27:27.956Z,17.12
2023-03-11T12:31:27.950Z,17.11
2023-03-11T12:35:27.886Z,17.09
2023-03-11T12:39:27.838Z,17.10
2023-03-11T12:43:27.830Z,17.13
2023-03-11T12:47:27.789Z,17.14
2023-03-11T12:51:27.733Z,17.14
2023-03-11T12:55:27.957Z,17.17
2023-03-11T12:59:28.118Z,17.15
2023-03-11T13:03:28.318Z,17.18
2023-03-11T13:07:28.483Z,17.21
2023-03-11T13:11:28.699Z,17.20
2023-03-11T13:15:28.878Z,17.19
2023-03-11T13:19:29.025Z,17.21
2023-03-11T13:23:29.202Z,17.24
2023-03-11T13:27:29.359Z,17.22
2023-03-11T13:31:29.640Z,17.26
2023-03-11T13:35:29.799Z,17.28
2023-03-11T13:39:29.725Z,17.37
2023-03-11T13:43:29.740Z,17.45
2023-03-11T13:47:29.792Z,17.51
2023-03-11T13:51:29.879Z,17.61
2023-03-11T13:55:29.848Z,17.67
2023-03-11T13:59:29.819Z,17.74
2023-03-11T14:03:29.812Z,17.78
2023-03-11T14:07:29.846Z,17.84
2023-03-11T14:11:29.729Z,17.87
2023-03-11T14:15:29.663Z,17.91
2023-03-11T14:19:29.640Z,17.92
2023-03-11T14:23:29.576Z,17.91
2023-03-11T14:27:29.542Z,17.88
2023-03-11T14:31:29.594Z,17.90
2023-03-11T14:35:29.544Z,17.89
2023-03-11T14:39:29.452Z,17.92
2023-03-11T14:43:29.403Z,17.92
2023-03-11T14:47:29.371Z,17.94
2023-03-11T14:51:29.332Z,17.94
2023-03-11T14:55:29.307Z,17.94
2023-03-11T14:59:29.262Z,17.96
2023-03-11T15:03:29.297Z,17.91
2023-03-11T15:07:29.177Z,17.95
2023-03-11T15:11:29.333Z,17.93
2023-03-11T15:15:29.428Z,17.94
2023-03-11T15:19:29.530Z,17.95
2023-03-11T15:23:29.581Z,17.98
2023-03-11T15:27:29.585Z,17.99
2023-03-11T15:31:29.583Z,18.03
2023-03-11T15:35:29.634Z,18.04
2023-03-11T15:39:29.688Z,18.08
2023-03-11T15:43:29.834Z,18.03
2023-03-11T15:47:29.969Z,18.04
2023-03-11T15:51:30.133Z,18.07
2023-03-11T15:55:30.214Z,18.05
2023-03-11T15:59:30.390Z,18.11
2023-03-11T16:03:31.562Z,18.12
2023-03-11T16:07:39.079Z,18.16
2023-03-11T16:11:31.420Z,18.17
2023-03-11T16:15:30.380Z,18.15
2023-03-11T16:19:30.347Z,18.19
2023-03-11T16:23:34.075Z,18.19
2023-03-11T16:27:31.288Z,18.26
2023-03-11T16:31:30.277Z,18.21
2023-03-11T16:35:30.338Z,18.26
2023-03-11T16:39:30.392Z,18.28
2023-03-11T16:43:30.755Z,18.34
2023-03-11T16:47:30.767Z,18.33
2023-03-11T16:51:30.851Z,18.32
2023-03-11T16:55:31.103Z,18.30
2023-03-11T16:59:31.151Z,18.28
2023-03-11T17:03:41.023Z,18.26
2023-03-11T17:07:32.278Z,18.27
2023-03-11T17:11:31.240Z,18.29
2023-03-11T17:15:31.271Z,18.30
2023-03-11T17:19:31.406Z,18.30
2023-03-11T17:23:31.521Z,18.31
2023-03-11T17:27:31.699Z,18.32
2023-03-11T17:31:31.852Z,18.34
2023-03-11T17:35:32.058Z,18.34
2023-03-11T17:39:32.226Z,18.36
2023-03-11T17:43:32.354Z,18.36
2023-03-11T17:47:32.499Z,18.36
2023-03-11T17:51:32.449Z,18.37
2023-03-11T17:55:32.374Z,18.37
2023-03-11T17:59:32.347Z,18.38
2023-03-11T18:03:32.298Z,18.37
2023-03-11T18:07:32.273Z,18.38
2023-03-11T18:11:32.253Z,18.38
2023-03-11T18:15:32.209Z,18.39
2023-03-11T18:19:32.162Z,18.40
2023-03-11T18:23:32.145Z,18.41
2023-03-11T18:27:32.082Z,18.41
2023-03-11T18:31:32.129Z,18.43
2023-03-11T18:35:32.034Z,18.48
2023-03-11T18:39:31.976Z,18.49
2023-03-11T18:43:31.949Z,18.52
2023-03-11T18:47:31.918Z,18.57
2023-03-11T18:51:31.890Z,18.67
2023-03-11T18:55:31.916Z,18.69
2023-03-11T18:59:31.941Z,18.75
2023-03-11T19:03:31.970Z,18.83
2023-03-11T19:07:32.176Z,18.87
2023-03-11T19:11:32.354Z,18.91
2023-03-11T19:15:32.407Z,18.98
2023-03-11T19:19:32.439Z,19.01
2023-03-11T19:23:32.616Z,19.10
2023-03-11T19:27:33.097Z,19.13
2023-03-11T19:31:32.981Z,19.18
2023-03-11T19:35:33.240Z,19.22
2023-03-11T19:39:33.632Z,19.26
2023-03-11T19:43:33.382Z,19.33
2023-03-11T19:47:33.522Z,19.34
2023-03-11T19:51:48.530Z,19.40
2023-03-11T19:55:34.532Z,19.46
2023-03-11T19:59:33.521Z,19.46
2023-03-11T20:03:33.555Z,19.48
2023-03-11T20:07:33.648Z,19.54
2023-03-11T20:11:33.710Z,19.54
2023-03-11T20:15:33.860Z,19.58
2023-03-11T20:19:33.790Z,19.60
2023-03-11T20:23:33.920Z,19.65
2023-03-11T20:27:33.967Z,19.67
2023-03-11T20:31:34.120Z,19.68
2023-03-11T20:35:34.192Z,19.73
2023-03-11T20:39:34.246Z,19.76
2023-03-11T20:43:34.287Z,19.79
2023-03-11T20:47:34.431Z,19.80
2023-03-11T20:51:34.556Z,19.84
2023-03-11T20:55:34.686Z,19.86
2023-03-11T20:59:34.757Z,19.88
2023-03-11T21:03:34.973Z,19.90
2023-03-11T21:07:35.056Z,19.91
2023-03-11T21:11:35.204Z,19.97
2023-03-11T21:15:35.318Z,19.98
2023-03-11T21:19:35.341Z,20.00
2023-03-11T21:23:35.520Z,20.01
2023-03-11T21:27:35.525Z,20.02
2023-03-11T21:31:35.682Z,20.06
2023-03-11T21:35:35.729Z,20.08
2023-03-11T21:39:35.829Z,20.10
2023-03-11T21:43:36.033Z,20.12
2023-03-11T21:47:36.090Z,20.12
2023-03-11T21:51:36.230Z,20.15
2023-03-11T21:55:36.454Z,20.16
2023-03-11T21:59:36.538Z,20.18
2023-03-11T22:03:36.645Z,20.20
2023-03-11T22:07:36.549Z,20.21
2023-03-11T22:11:36.606Z,20.23
2023-03-11T22:15:36.924Z,20.25
2023-03-11T22:19:36.960Z,20.26
2023-03-11T22:23:37.017Z,20.26
2023-03-11T22:27:37.130Z,20.30
2023-03-11T22:31:37.240Z,20.31
2023-03-11T22:35:37.309Z,20.29
2023-03-11T22:39:37.320Z,20.32
2023-03-11T22:43:37.681Z,20.31
2023-03-11T22:47:37.491Z,20.34
2023-03-11T22:51:37.577Z,20.36
2023-03-11T22:55:37.657Z,20.36
2023-03-11T22:59:37.689Z,20.35
2023-03-11T23:03:37.897Z,20.39
2023-03-11T23:07:38.215Z,20.39
2023-03-11T23:11:38.086Z,20.41
2023-03-11T23:15:38.263Z,20.40
2023-03-11T23:19:38.709Z,20.39
2023-03-11T23:23:38.454Z,20.43
2023-03-11T23:27:38.522Z,20.44
2023-03-11T23:31:38.538Z,20.43
2023-03-11T23:35:38.611Z,20.46
2023-03-11T23:39:38.493Z,20.44
2023-03-11T23:43:38.706Z,20.46
2023-03-11T23:47:38.544Z,20.49
2023-03-11T23:51:38.726Z,20.46
2023-03-11T23:55:38.872Z,20.47
2023-03-11T23:59:38.875Z,20.49
